createdAt,value
2018-11-29T00:07:27.152Z,4.10
2018-11-29T00:09:56.003Z,3.58
2018-11-29T00:12:24.848Z,3.25
2018-11-29T00:14:53.799Z,3.92
2018-11-29T00:17:22.613Z,5.03
2018-11-29T00:19:51.511Z,3.77
2018-11-29T00:22:20.343Z,4.00
2018-11-29T00:24:49.403Z,3.72
2018-11-29T00:27:18.291Z,3.52
2018-11-29T00:29:47.157Z,3.95
2018-11-29T00:32:16.061Z,4.22
2018-11-29T00:34:44.874Z,3.12
2018-11-29T00:37:13.721Z,3.40
2018-11-29T00:39:42.547Z,4.45
2018-11-29T00:42:11.420Z,3.80
2018-11-29T00:44:40.269Z,3.65
2018-11-29T00:47:09.102Z,3.72
2018-11-29T00:49:37.917Z,3.60
2018-11-29T00:52:06.803Z,5.00
2018-11-29T00:54:35.644Z,3.40
2018-11-29T00:57:04.490Z,3.65
2018-11-29T00:59:33.375Z,3.45
2018-11-29T01:02:02.259Z,3.33
2018-11-29T01:04:31.126Z,3.85
2018-11-29T01:07:00.095Z,3.50
2018-11-29T01:09:29.215Z,4.00
2018-11-29T01:11:58.147Z,4.40
2018-11-29T01:14:27.019Z,3.67
2018-11-29T01:16:55.916Z,4.45
2018-11-29T01:19:25.490Z,3.17
2018-11-29T01:21:54.286Z,4.15
2018-11-29T01:24:23.135Z,3.75
2018-11-29T01:26:51.987Z,3.90
2018-11-29T01:29:20.924Z,3.85
2018-11-29T01:31:49.823Z,3.15
2018-11-29T01:34:18.760Z,4.08
2018-11-29T01:36:47.728Z,3.35
2018-11-29T01:39:16.604Z,3.47
2018-11-29T01:41:45.567Z,3.20
2018-11-29T01:44:14.397Z,3.27
2018-11-29T01:46:43.227Z,3.12
2018-11-29T01:49:12.080Z,3.95
2018-11-29T01:51:40.923Z,4.10
2018-11-29T01:54:09.760Z,4.10
2018-11-29T01:56:38.616Z,3.40
2018-11-29T01:59:07.475Z,3.55
2018-11-29T02:01:36.427Z,3.90
2018-11-29T02:04:05.604Z,3.10
2018-11-29T02:06:34.481Z,3.25
2018-11-29T02:09:03.431Z,4.58
2018-11-29T02:11:32.285Z,3.10
2018-11-29T02:14:01.119Z,3.60
2018-11-29T02:16:29.953Z,3.12
2018-11-29T02:18:58.863Z,2.47
2018-11-29T02:21:27.986Z,2.80
2018-11-29T02:23:57.215Z,2.98
2018-11-29T02:26:26.163Z,3.37
2018-11-29T02:28:55.133Z,3.47
2018-11-29T02:31:24.733Z,2.92
2018-11-29T02:33:53.709Z,2.70
2018-11-29T02:36:22.563Z,3.85
2018-11-29T02:38:51.397Z,3.27
2018-11-29T02:41:20.330Z,3.02
2018-11-29T02:43:49.190Z,3.17
2018-11-29T02:46:18.026Z,2.80
2018-11-29T02:48:46.953Z,3.40
2018-11-29T02:51:15.887Z,3.25
2018-11-29T02:53:44.740Z,3.12
2018-11-29T02:56:13.588Z,3.80
2018-11-29T02:58:42.415Z,3.00
2018-11-29T03:01:11.234Z,4.08
2018-11-29T03:03:40.071Z,3.20
2018-11-29T03:06:09.222Z,3.00
2018-11-29T03:08:38.111Z,2.95
2018-11-29T03:11:07.042Z,3.50
2018-11-29T03:13:35.979Z,3.37
2018-11-29T03:16:04.865Z,3.70
2018-11-29T03:18:33.819Z,3.50
2018-11-29T03:21:02.667Z,3.75
2018-11-29T03:23:31.510Z,3.33
2018-11-29T03:26:00.359Z,3.47
2018-11-29T03:28:29.592Z,2.85
2018-11-29T03:30:58.429Z,3.25
2018-11-29T03:33:27.304Z,3.20
2018-11-29T03:35:56.201Z,3.25
2018-11-29T03:38:25.052Z,4.58
2018-11-29T03:40:54.004Z,3.05
2018-11-29T03:43:22.849Z,2.95
2018-11-29T03:45:51.742Z,2.70
2018-11-29T03:48:20.608Z,2.70
2018-11-29T03:50:49.440Z,2.92
2018-11-29T03:53:18.276Z,2.45
2018-11-29T03:55:47.135Z,4.05
2018-11-29T03:58:16.422Z,3.00
2018-11-29T04:00:45.358Z,3.00
2018-11-29T04:03:14.854Z,2.25
2018-11-29T04:05:43.678Z,2.75
2018-11-29T04:08:12.711Z,2.60
2018-11-29T04:10:41.751Z,3.05
2018-11-29T04:13:10.795Z,2.52
2018-11-29T04:15:39.761Z,2.50
2018-11-29T04:18:08.619Z,2.85
2018-11-29T04:20:37.483Z,2.85
2018-11-29T04:23:06.569Z,3.15
2018-11-29T04:25:35.478Z,3.37
2018-11-29T04:28:04.347Z,3.42
2018-11-29T04:30:33.296Z,4.03
2018-11-29T04:33:02.142Z,3.52
2018-11-29T04:35:31.022Z,3.72
2018-11-29T04:37:59.916Z,3.02
2018-11-29T04:40:28.744Z,5.40
2018-11-29T04:42:57.668Z,5.42
2018-11-29T04:45:30.890Z,3.80
2018-11-29T04:47:59.740Z,4.33
2018-11-29T04:50:28.623Z,4.28
2018-11-29T04:52:57.466Z,3.47
2018-11-29T04:55:26.327Z,8.13
2018-11-29T04:57:55.239Z,5.20
2018-11-29T05:00:24.124Z,4.83
2018-11-29T05:02:52.996Z,4.10
2018-11-29T05:05:21.835Z,4.10
2018-11-29T05:07:50.675Z,8.80
2018-11-29T05:10:19.588Z,4.92
2018-11-29T05:12:48.487Z,4.80
2018-11-29T05:15:17.466Z,3.67
2018-11-29T05:17:46.395Z,4.05
2018-11-29T05:20:15.244Z,4.55
2018-11-29T05:22:44.098Z,4.83
2018-11-29T05:25:12.995Z,4.08
2018-11-29T05:27:41.839Z,3.90
2018-11-29T05:30:12.376Z,4.05
2018-11-29T05:32:41.298Z,4.87
2018-11-29T05:35:11.318Z,4.95
2018-11-29T05:37:40.253Z,3.87
2018-11-29T05:40:16.672Z,4.72
2018-11-29T05:42:45.666Z,4.80
2018-11-29T05:45:14.555Z,6.67
2018-11-29T05:47:43.448Z,5.08
2018-11-29T05:50:12.796Z,8.25
2018-11-29T05:52:41.992Z,6.42
2018-11-29T05:55:12.721Z,5.45
2018-11-29T05:57:41.558Z,5.83
2018-11-29T06:00:13.114Z,5.87
2018-11-29T06:02:42.029Z,6.33
2018-11-29T06:05:12.104Z,6.90
2018-11-29T06:07:40.997Z,8.43
2018-11-29T06:10:09.874Z,7.50
2018-11-29T06:12:38.856Z,6.33
2018-11-29T06:15:09.701Z,6.12
2018-11-29T06:17:38.629Z,6.67
2018-11-29T06:20:10.178Z,7.90
2018-11-29T06:22:39.061Z,7.22
2018-11-29T06:25:07.975Z,9.25
2018-11-29T06:27:36.856Z,10.03
2018-11-29T06:30:11.583Z,11.03
2018-11-29T06:32:40.410Z,8.68
2018-11-29T06:35:09.332Z,9.35
2018-11-29T06:37:38.250Z,7.85
2018-11-29T06:40:11.015Z,10.35
2018-11-29T06:42:39.900Z,10.30
2018-11-29T06:45:13.830Z,10.90
2018-11-29T06:47:42.728Z,8.20
2018-11-29T06:50:13.471Z,8.15
2018-11-29T06:52:43.501Z,8.73
2018-11-29T06:59:52.063Z,9.30
2018-11-29T07:02:20.933Z,8.83
2018-11-29T07:04:50.242Z,8.58
2018-11-29T07:07:19.155Z,9.70
2018-11-29T07:09:47.995Z,9.78
2018-11-29T07:12:17.087Z,11.30
2018-11-29T07:14:46.378Z,7.95
2018-11-29T07:17:15.651Z,8.58
2018-11-29T07:19:44.767Z,8.58
2018-11-29T07:22:13.710Z,9.58
2018-11-29T07:24:42.614Z,9.38
2018-11-29T07:27:11.480Z,8.43
2018-11-29T07:29:40.358Z,9.15
2018-11-29T07:32:11.656Z,8.33
2018-11-29T07:34:40.579Z,9.30
2018-11-29T07:37:09.453Z,7.53
2018-11-29T07:39:38.478Z,8.30
2018-11-29T07:42:07.587Z,10.13
2018-11-29T07:44:36.568Z,8.40
2018-11-29T07:47:05.479Z,8.33
2018-11-29T07:49:34.326Z,8.58
2018-11-29T07:52:03.267Z,9.28
2018-11-29T07:54:32.147Z,8.60
2018-11-29T07:57:01.051Z,9.28
2018-11-29T07:59:29.909Z,9.15
2018-11-29T08:01:58.785Z,8.98
2018-11-29T08:04:27.648Z,8.48
2018-11-29T08:06:56.552Z,10.58
2018-11-29T08:09:25.400Z,9.33
2018-11-29T08:11:54.328Z,11.00
2018-11-29T08:14:23.241Z,10.13
2018-11-29T08:16:52.059Z,7.95
2018-11-29T08:19:20.908Z,8.58
2018-11-29T08:21:55.973Z,10.15
2018-11-29T08:24:24.997Z,8.15
2018-11-29T08:26:53.826Z,7.42
2018-11-29T08:29:22.740Z,9.23
2018-11-29T08:31:51.628Z,8.95
2018-11-29T08:34:20.776Z,10.55
2018-11-29T08:36:49.621Z,9.05
2018-11-29T08:39:19.125Z,8.78
2018-11-29T08:41:47.990Z,7.22
2018-11-29T08:44:16.860Z,8.28
2018-11-29T08:46:45.704Z,8.48
2018-11-29T08:49:14.547Z,10.55
2018-11-29T08:51:43.374Z,8.58
2018-11-29T08:54:12.230Z,8.78
2018-11-29T08:56:41.093Z,7.55
2018-11-29T08:59:09.920Z,8.08
2018-11-29T09:01:38.755Z,8.28
2018-11-29T09:04:07.733Z,8.15
2018-11-29T09:06:36.567Z,7.28
2018-11-29T09:09:07.272Z,9.83
2018-11-29T09:11:36.124Z,7.55
2018-11-29T09:14:04.986Z,9.25
2018-11-29T09:16:34.033Z,8.38
2018-11-29T09:19:02.899Z,9.60
2018-11-29T09:21:31.792Z,8.10
2018-11-29T09:24:00.653Z,11.43
2018-11-29T09:26:29.537Z,9.48
2018-11-29T09:28:58.415Z,8.85
2018-11-29T09:31:27.287Z,9.75
2018-11-29T09:33:56.134Z,9.10
2018-11-29T09:36:25.021Z,10.35
2018-11-29T09:38:53.989Z,10.63
2018-11-29T09:41:22.877Z,10.10
2018-11-29T09:43:51.770Z,9.63
2018-11-29T09:46:20.640Z,10.23
2018-11-29T09:48:49.548Z,15.03
2018-11-29T09:51:18.379Z,11.95
2018-11-29T09:53:47.229Z,11.33
2018-11-29T09:56:16.070Z,8.95
2018-11-29T09:58:45.057Z,8.15
2018-11-29T10:01:13.869Z,8.30
2018-11-29T10:03:42.728Z,10.05
2018-11-29T10:06:11.614Z,10.65
2018-11-29T10:08:40.467Z,8.78
2018-11-29T10:11:09.299Z,9.78
2018-11-29T10:13:38.164Z,9.35
2018-11-29T10:16:07.072Z,7.92
2018-11-29T10:18:35.939Z,10.35
2018-11-29T10:21:04.807Z,9.40
2018-11-29T10:23:33.684Z,9.20
2018-11-29T10:26:02.564Z,8.55
2018-11-29T10:28:31.487Z,8.00
2018-11-29T10:31:01.787Z,10.90
2018-11-29T10:33:30.718Z,9.18
2018-11-29T10:35:59.609Z,10.05
2018-11-29T10:38:28.454Z,9.38
2018-11-29T10:40:57.359Z,10.15
2018-11-29T10:43:26.258Z,11.12
2018-11-29T10:45:55.149Z,13.43
2018-11-29T10:48:24.839Z,10.13
2018-11-29T10:50:53.731Z,11.18
2018-11-29T10:53:22.580Z,10.80
2018-11-29T10:55:51.456Z,9.03
2018-11-29T10:58:20.285Z,11.00
2018-11-29T11:00:54.309Z,11.00
2018-11-29T11:03:23.179Z,11.22
2018-11-29T11:05:53.098Z,13.58
2018-11-29T11:08:22.171Z,12.50
2018-11-29T11:10:51.083Z,11.70
2018-11-29T11:13:19.972Z,14.87
2018-11-29T11:15:48.848Z,12.30
2018-11-29T11:18:18.152Z,13.62
2018-11-29T11:20:47.002Z,11.35
2018-11-29T11:23:15.848Z,11.78
2018-11-29T11:25:44.809Z,11.18
2018-11-29T11:28:20.275Z,11.80
2018-11-29T11:30:49.155Z,10.18
2018-11-29T11:33:18.051Z,12.78
2018-11-29T11:35:46.923Z,10.35
2018-11-29T11:38:15.860Z,10.65
2018-11-29T11:40:44.812Z,11.35
2018-11-29T11:43:13.673Z,12.40
2018-11-29T11:45:42.579Z,12.68
2018-11-29T11:48:11.451Z,12.13
2018-11-29T11:50:40.341Z,11.83
2018-11-29T11:53:09.834Z,11.85
2018-11-29T11:55:38.915Z,12.28
2018-11-29T11:58:08.523Z,12.60
2018-11-29T12:00:37.851Z,12.40
2018-11-29T12:03:10.414Z,16.32
2018-11-29T12:05:39.314Z,15.05
2018-11-29T12:08:08.397Z,13.53
2018-11-29T12:10:37.929Z,13.95
2018-11-29T12:13:07.850Z,15.58
2018-11-29T12:15:37.732Z,14.07
2018-11-29T12:18:08.322Z,14.40
2018-11-29T12:20:37.155Z,14.93
2018-11-29T12:23:06.567Z,12.25
2018-11-29T12:25:35.411Z,14.00
2018-11-29T12:28:04.345Z,13.00
2018-11-29T12:30:34.999Z,13.43
2018-11-29T12:33:05.104Z,13.13
2018-11-29T12:35:34.093Z,12.05
2018-11-29T12:38:02.965Z,15.53
2018-11-29T12:40:31.879Z,16.20
2018-11-29T12:43:00.770Z,13.08
2018-11-29T12:45:29.620Z,14.18
2018-11-29T12:47:58.467Z,11.90
2018-11-29T12:50:27.845Z,12.90
2018-11-29T12:52:56.679Z,13.75
2018-11-29T12:55:26.668Z,17.82
2018-11-29T12:58:05.101Z,13.85
2018-11-29T13:00:25.412Z,13.60
2018-11-29T13:02:56.342Z,14.25
2018-11-29T13:05:25.604Z,13.83
2018-11-29T13:07:54.564Z,16.82
2018-11-29T13:10:24.512Z,13.05
2018-11-29T13:12:53.644Z,13.85
2018-11-29T13:15:28.709Z,17.15
2018-11-29T13:17:58.667Z,12.15
2018-11-29T13:20:32.383Z,12.28
2018-11-29T13:22:56.446Z,18.12
2018-11-29T13:25:26.571Z,15.78
2018-11-29T13:27:55.476Z,14.38
2018-11-29T13:30:24.510Z,16.02
2018-11-29T13:32:54.732Z,15.25
2018-11-29T13:35:29.067Z,16.60
2018-11-29T13:38:02.123Z,15.20
2018-11-29T13:40:31.823Z,14.80
2018-11-29T13:43:00.705Z,14.25
2018-11-29T13:45:29.647Z,15.70
2018-11-29T13:47:58.537Z,16.07
2018-11-29T13:50:27.420Z,16.35
2018-11-29T13:52:56.512Z,14.90
2018-11-29T13:55:25.655Z,15.45
2018-11-29T13:57:54.838Z,15.05
2018-11-29T14:00:24.720Z,16.60
2018-11-29T14:02:59.084Z,16.15
2018-11-29T14:05:28.186Z,15.13
2018-11-29T14:07:57.371Z,15.03
2018-11-29T14:10:26.530Z,13.93
2018-11-29T14:12:56.283Z,13.80
2018-11-29T14:15:32.513Z,16.93
2018-11-29T14:18:01.835Z,15.95
2018-11-29T14:20:30.957Z,16.57
2018-11-29T14:23:00.068Z,17.17
2018-11-29T14:25:29.210Z,14.00
2018-11-29T14:27:58.756Z,16.70
2018-11-29T14:30:29.026Z,15.90
2018-11-29T14:32:59.413Z,16.37
2018-11-29T14:35:28.597Z,15.80
2018-11-29T14:37:57.730Z,20.70
2018-11-29T14:40:28.134Z,18.95
2018-11-29T14:42:57.259Z,21.62
2018-11-29T14:45:27.322Z,20.75
2018-11-29T14:47:56.840Z,21.20
2018-11-29T14:50:38.878Z,22.82
2018-11-29T14:53:09.106Z,22.73
2018-11-29T14:55:38.751Z,23.15
2018-11-29T14:58:12.055Z,22.45
2018-11-29T15:00:41.213Z,20.95
2018-11-29T15:03:15.496Z,21.10
2018-11-29T15:05:45.112Z,18.60
2018-11-29T15:08:14.274Z,19.40
2018-11-29T15:10:43.370Z,19.90
2018-11-29T15:13:13.039Z,22.40
2018-11-29T15:15:43.007Z,22.05
2018-11-29T15:18:12.536Z,20.15
2018-11-29T15:20:46.867Z,23.40
2018-11-29T15:23:17.377Z,21.40
2018-11-29T15:25:46.488Z,19.87
2018-11-29T15:28:15.606Z,21.93
2018-11-29T15:30:44.854Z,19.57
2018-11-29T15:33:14.127Z,20.48
2018-11-29T15:35:43.230Z,25.30
2018-11-29T15:38:12.358Z,23.07
2018-11-29T15:40:41.500Z,22.82
2018-11-29T15:43:10.589Z,21.70
2018-11-29T15:45:39.697Z,25.10
2018-11-29T15:48:08.783Z,24.02
2018-11-29T15:50:37.891Z,23.52
2018-11-29T15:53:07.837Z,21.23
2018-11-29T15:55:37.281Z,21.42
2018-11-29T15:58:06.769Z,19.32
2018-11-29T16:00:36.000Z,23.83
2018-11-29T16:03:07.998Z,19.10
2018-11-29T16:05:37.155Z,18.60
2018-11-29T16:08:07.112Z,20.45
2018-11-29T16:10:36.559Z,20.77
2018-11-29T16:13:06.868Z,19.98
2018-11-29T16:15:36.317Z,17.82
2018-11-29T16:18:05.513Z,24.15
2018-11-29T16:20:36.243Z,19.50
2018-11-29T16:23:05.993Z,19.10
2018-11-29T16:25:35.161Z,20.32
2018-11-29T16:28:05.202Z,19.50
2018-11-29T16:30:39.208Z,23.02
2018-11-29T16:33:10.953Z,18.17
2018-11-29T16:35:40.136Z,22.02
2018-11-29T16:38:09.237Z,22.37
2018-11-29T16:40:38.358Z,21.15
2018-11-29T16:43:08.249Z,20.48
2018-11-29T16:45:37.581Z,22.37
2018-11-29T16:48:07.136Z,21.30
2018-11-29T16:50:36.841Z,25.75
2018-11-29T16:53:06.773Z,21.75
2018-11-29T16:55:36.000Z,24.63
2018-11-29T16:58:09.211Z,25.70
2018-11-29T17:00:38.324Z,22.40
2018-11-29T17:03:07.544Z,24.82
2018-11-29T17:05:36.854Z,21.23
2018-11-29T17:08:06.794Z,21.45
2018-11-29T17:10:36.094Z,23.73
2018-11-29T17:13:10.999Z,20.82
2018-11-29T17:15:40.092Z,22.73
2018-11-29T17:18:09.205Z,21.87
2018-11-29T17:20:38.386Z,20.30
2018-11-29T17:23:09.084Z,23.15
2018-11-29T17:25:38.338Z,19.25
2018-11-29T17:28:08.115Z,22.05
2018-11-29T17:30:37.934Z,16.25
2018-11-29T17:33:08.334Z,20.25
2018-11-29T17:35:37.559Z,19.48
2018-11-29T17:38:07.038Z,18.25
2018-11-29T17:40:37.143Z,18.92
2018-11-29T17:43:06.953Z,15.68
2018-11-29T17:45:36.143Z,18.48
2018-11-29T17:48:10.088Z,18.85
2018-11-29T17:50:41.513Z,18.52
2018-11-29T17:53:11.396Z,20.17
2018-11-29T17:55:40.760Z,17.60
2018-11-29T17:58:12.470Z,14.43
2018-11-29T18:00:41.918Z,12.70
2018-11-29T18:03:11.030Z,13.88
2018-11-29T18:05:40.157Z,14.95
2018-11-29T18:08:09.269Z,16.55
2018-11-29T18:10:40.156Z,13.93
2018-11-29T18:13:15.186Z,15.78
2018-11-29T18:15:44.412Z,14.93
2018-11-29T18:18:14.680Z,15.90
2018-11-29T18:20:42.952Z,14.07
2018-11-29T18:23:12.952Z,17.20
2018-11-29T18:25:42.109Z,14.10
2018-11-29T18:28:12.055Z,14.98
2018-11-29T18:30:41.155Z,14.65
2018-11-29T18:33:10.301Z,16.73
2018-11-29T18:35:39.451Z,14.68
2018-11-29T18:38:09.372Z,16.60
2018-11-29T18:40:38.518Z,16.65
2018-11-29T18:43:09.391Z,16.30
2018-11-29T18:45:38.645Z,16.55
2018-11-29T18:48:08.193Z,15.80
2018-11-29T18:50:37.531Z,13.22
2018-11-29T18:53:07.377Z,13.32
2018-11-29T18:55:36.572Z,12.63
2018-11-29T18:58:06.258Z,15.30
2018-11-29T19:00:36.481Z,13.78
2018-11-29T19:03:06.048Z,13.53
2018-11-29T19:05:35.538Z,13.50
2018-11-29T19:08:04.568Z,10.93
2018-11-29T19:10:33.821Z,19.02
2018-11-29T19:13:09.164Z,12.13
2018-11-29T19:15:38.266Z,13.93
2018-11-29T19:18:10.504Z,11.50
2018-11-29T19:20:37.315Z,13.55
2018-11-29T19:23:06.760Z,11.63
2018-11-29T19:25:36.183Z,10.88
2018-11-29T19:28:05.864Z,10.18
2018-11-29T19:30:35.472Z,12.00
2018-11-29T19:33:17.489Z,11.43
2018-11-29T19:35:47.403Z,11.00
2018-11-29T19:38:16.646Z,12.63
2018-11-29T19:40:45.945Z,14.75
2018-11-29T19:43:15.055Z,14.53
2018-11-29T19:45:44.213Z,13.25
2018-11-29T19:48:13.690Z,13.28
2018-11-29T19:50:42.843Z,13.75
2018-11-29T19:53:19.011Z,15.10
2018-11-29T19:55:49.007Z,10.72
2018-11-29T19:58:18.145Z,11.63
2018-11-29T20:00:47.831Z,11.35
2018-11-29T20:03:16.874Z,13.35
2018-11-29T20:05:47.021Z,12.68
2018-11-29T20:08:16.151Z,11.78
2018-11-29T20:10:45.297Z,10.58
2018-11-29T20:13:15.471Z,12.93
2018-11-29T20:15:47.260Z,11.28
2018-11-29T20:18:16.474Z,12.75
2018-11-29T20:20:45.681Z,10.93
2018-11-29T20:23:14.848Z,11.05
2018-11-29T20:25:45.309Z,12.53
2018-11-29T20:28:14.469Z,15.03
2018-11-29T20:30:43.668Z,11.57
2018-11-29T20:33:13.177Z,11.45
2018-11-29T20:35:42.596Z,11.18
2018-11-29T20:38:11.750Z,11.00
2018-11-29T20:40:42.489Z,9.63
2018-11-29T20:43:11.598Z,9.65
2018-11-29T20:45:50.765Z,10.72
2018-11-29T20:48:22.102Z,10.93
2018-11-29T20:50:51.966Z,11.97
2018-11-29T20:53:24.198Z,11.80
2018-11-29T20:55:53.417Z,13.05
2018-11-29T20:58:22.487Z,9.70
2018-11-29T21:00:51.573Z,11.57
2018-11-29T21:03:20.695Z,11.78
2018-11-29T21:05:49.787Z,11.28
2018-11-29T21:08:18.889Z,12.53
2018-11-29T21:10:48.080Z,12.55
2018-11-29T21:13:17.227Z,11.85
2018-11-29T21:15:46.479Z,12.45
2018-11-29T21:18:16.292Z,11.90
2018-11-29T21:20:45.497Z,11.68
2018-11-29T21:29:09.426Z,13.68
2018-11-29T21:31:41.426Z,11.85
2018-11-29T21:34:10.510Z,13.90
2018-11-29T21:36:39.595Z,14.65
2018-11-29T21:39:08.778Z,11.08
2018-11-29T21:41:37.844Z,11.60
2018-11-29T21:46:00.669Z,9.07
2018-11-29T21:48:30.453Z,10.27
2018-11-29T21:51:00.195Z,12.90
2018-11-29T21:53:29.959Z,10.68
2018-11-29T21:55:59.943Z,12.53
2018-11-29T21:58:29.768Z,9.83
2018-11-29T22:00:59.608Z,11.00
2018-11-29T22:03:29.361Z,12.37
2018-11-29T22:05:59.149Z,9.43
2018-11-29T22:08:28.888Z,9.33
2018-11-29T22:10:58.616Z,11.18
2018-11-29T22:13:28.411Z,10.68
2018-11-29T22:15:58.161Z,12.45
2018-11-29T22:18:27.962Z,10.20
2018-11-29T22:20:59.956Z,12.05
2018-11-29T22:23:29.992Z,10.35
2018-11-29T22:26:00.895Z,10.88
2018-11-29T22:28:31.191Z,11.43
2018-11-29T22:31:01.069Z,9.98
2018-11-29T22:33:30.834Z,10.53
2018-11-29T22:36:00.636Z,10.08
2018-11-29T22:38:30.528Z,11.28
2018-11-29T22:41:00.285Z,10.43
2018-11-29T22:43:30.189Z,11.63
2018-11-29T22:46:00.073Z,10.88
2018-11-29T22:48:29.899Z,9.13
2018-11-29T22:50:59.662Z,10.63
2018-11-29T22:53:29.461Z,8.43
2018-11-29T22:55:59.366Z,8.80
2018-11-29T22:58:29.109Z,10.43
2018-11-29T23:00:58.865Z,8.95
2018-11-29T23:03:28.642Z,11.40
2018-11-29T23:05:58.397Z,8.35
2018-11-29T23:08:28.104Z,10.28
2018-11-29T23:10:57.964Z,8.58
2018-11-29T23:13:27.758Z,12.20
2018-11-29T23:15:57.545Z,10.48
2018-11-29T23:18:27.302Z,9.68
2018-11-29T23:20:57.083Z,11.70
2018-11-29T23:23:26.808Z,10.60
2018-11-29T23:25:56.577Z,10.95
2018-11-29T23:28:26.333Z,10.00
2018-11-29T23:30:56.042Z,10.95
2018-11-29T23:33:25.875Z,7.85
2018-11-29T23:35:55.616Z,7.90
2018-11-29T23:38:25.441Z,7.70
2018-11-29T23:40:55.277Z,10.25
2018-11-29T23:43:25.008Z,9.43
2018-11-29T23:45:54.739Z,7.50
2018-11-29T23:48:24.469Z,9.18
2018-11-29T23:50:54.209Z,10.35
2018-11-29T23:53:23.954Z,10.50
2018-11-29T23:55:54.169Z,9.93
2018-11-29T23:58:23.903Z,8.25
